Time;durP1;ratioP1;P1;durP2;ratioP2;P2;SDS_P1;SDS_P2;PMS_P1;PMS_P2;Temp;Humidity;BMP_temperature;BMP_pressure;BME280_temperature;BME280_humidity;BME280_pressure;Samples;Min_cycle;Max_cycle;Signal;HPM_P1;HPM_P2
2023/03/03 00:02:24;;;;;;;;;52.75;42.75;;;;;;;;5050234;28;45653;-80
2023/03/03 00:04:49;;;;;;;;;56.50;44.50;;;;;;;;5039558;28;45690;-80
2023/03/03 00:07:20;;;;;;;;;60.00;43.00;;;;;;;;5031813;28;45888;-80
2023/03/03 00:09:45;;;;;;;;;61.50;45.75;;;;;;;;5019337;28;45800;-79
2023/03/03 00:12:19;;;;;;;;;60.50;46.50;;;;;;;;5041629;28;46465;-82
2023/03/03 00:14:45;;;;;;;;;54.00;43.25;;;;;;;;5032280;28;45712;-81
2023/03/03 00:17:17;;;;;;;;;62.00;47.25;;;;;;;;5029433;28;45744;-80
2023/03/03 00:19:46;;;;;;;;;60.25;45.50;;;;;;;;5026150;28;47503;-81
2023/03/03 00:22:21;;;;;;;;;59.25;42.50;;;;;;;;5025172;28;45947;-82
2023/03/03 00:24:48;;;;;;;;;53.00;41.75;;;;;;;;5025459;28;45823;-80
2023/03/03 00:27:34;;;;;;;;;51.50;42.00;;;;;;;;5033547;28;45814;-82
2023/03/03 00:30:00;;;;;;;;;56.25;43.25;;;;;;;;5019753;28;46004;-81
2023/03/03 00:32:29;;;;;;;;;51.50;39.25;;;;;;;;5030817;28;45945;-80
2023/03/03 00:34:59;;;;;;;;;60.75;44.50;;;;;;;;5037972;28;45195;-80
2023/03/03 00:37:24;;;;;;;;;59.25;43.25;;;;;;;;5034265;28;45736;-80
2023/03/03 00:39:49;;;;;;;;;53.50;40.25;;;;;;;;5035748;28;45452;-80
2023/03/03 00:42:16;;;;;;;;;61.50;44.75;;;;;;;;5031607;28;46060;-81
2023/03/03 00:44:45;;;;;;;;;57.00;44.00;;;;;;;;5034057;28;45520;-82
2023/03/03 00:47:21;;;;;;;;;60.50;43.75;;;;;;;;5033958;28;45870;-81
2023/03/03 00:49:46;;;;;;;;;62.00;48.00;;;;;;;;5033528;28;45918;-81
2023/03/03 00:52:16;;;;;;;;;59.00;46.50;;;;;;;;5051061;28;46384;-80
2023/03/03 00:54:41;;;;;;;;;57.50;47.00;;;;;;;;5044408;28;45734;-82
2023/03/03 00:57:07;;;;;;;;;61.00;43.25;;;;;;;;5020836;28;45381;-79
2023/03/03 00:59:32;;;;;;;;;62.25;46.50;;;;;;;;5043421;28;45748;-80
2023/03/03 01:01:57;;;;;;;;;59.50;45.50;;;;;;;;5036893;28;46184;-80
2023/03/03 01:04:22;;;;;;;;;62.00;45.75;;;;;;;;5039278;28;45649;-81
2023/03/03 01:06:48;;;;;;;;;57.50;45.25;;;;;;;;5050949;28;45284;-80
2023/03/03 01:09:13;;;;;;;;;58.50;47.75;;;;;;;;5037685;28;45667;-80
2023/03/03 01:11:39;;;;;;;;;62.00;48.50;;;;;;;;5044966;28;46265;-81
2023/03/03 01:14:04;;;;;;;;;58.25;44.00;;;;;;;;5050920;28;45782;-80
2023/03/03 01:16:30;;;;;;;;;58.75;44.00;;;;;;;;5037400;28;45764;-80
2023/03/03 01:18:55;;;;;;;;;64.75;46.75;;;;;;;;5033243;28;45393;-84
2023/03/03 01:21:20;;;;;;;;;55.50;44.00;;;;;;;;5033248;28;46815;-84
2023/03/03 01:23:46;;;;;;;;;58.75;45.00;;;;;;;;5033439;28;45996;-83
2023/03/03 01:26:11;;;;;;;;;57.00;42.75;;;;;;;;5029528;28;45650;-83
2023/03/03 01:28:36;;;;;;;;;62.00;45.50;;;;;;;;5030118;28;45436;-82
2023/03/03 01:31:02;;;;;;;;;58.50;42.50;;;;;;;;5024461;28;47026;-82
2023/03/03 01:33:28;;;;;;;;;54.00;44.00;;;;;;;;5025412;28;45439;-82
2023/03/03 01:35:53;;;;;;;;;55.75;45.75;;;;;;;;5026044;28;45266;-82
2023/03/03 01:38:18;;;;;;;;;58.75;44.25;;;;;;;;5030738;28;45499;-82
2023/03/03 01:40:50;;;;;;;;;57.75;44.75;;;;;;;;5035022;28;46589;-82
2023/03/03 01:43:15;;;;;;;;;62.75;45.25;;;;;;;;5029239;28;45577;-82
2023/03/03 01:45:52;;;;;;;;;57.25;46.00;;;;;;;;5031163;28;45279;-81
2023/03/03 01:48:24;;;;;;;;;58.50;47.25;;;;;;;;5031260;28;45332;-81
2023/03/03 01:51:01;;;;;;;;;57.25;43.25;;;;;;;;5030401;28;45718;-82
2023/03/03 01:53:41;;;;;;;;;55.00;42.25;;;;;;;;5032032;28;45750;-83
2023/03/03 01:56:07;;;;;;;;;58.75;46.25;;;;;;;;5041448;28;45844;-81
2023/03/03 01:58:35;;;;;;;;;61.50;46.75;;;;;;;;5031510;28;46314;-83
2023/03/03 02:01:02;;;;;;;;;56.25;44.25;;;;;;;;5022420;28;46140;-81
2023/03/03 02:03:28;;;;;;;;;57.75;46.00;;;;;;;;5024660;28;45402;-82
2023/03/03 02:05:56;;;;;;;;;55.50;41.50;;;;;;;;5032524;28;45423;-82
2023/03/03 02:08:26;;;;;;;;;54.75;37.75;;;;;;;;5034179;28;46466;-82
2023/03/03 02:10:52;;;;;;;;;53.25;41.50;;;;;;;;5035354;28;45695;-80
2023/03/03 02:13:17;;;;;;;;;59.50;45.50;;;;;;;;5021298;28;45414;-81
2023/03/03 02:15:43;;;;;;;;;50.50;41.50;;;;;;;;5042057;28;45985;-81
2023/03/03 02:18:15;;;;;;;;;55.50;43.00;;;;;;;;5036017;28;45763;-80
2023/03/03 02:20:50;;;;;;;;;56.75;43.25;;;;;;;;5031041;28;47250;-80
2023/03/03 02:23:18;;;;;;;;;60.75;44.50;;;;;;;;5030852;28;45780;-79
2023/03/03 02:25:56;;;;;;;;;57.00;43.00;;;;;;;;5043041;28;45632;-80
2023/03/03 02:28:31;;;;;;;;;55.75;44.25;;;;;;;;5045715;28;45696;-79
2023/03/03 02:30:58;;;;;;;;;61.25;45.50;;;;;;;;5021603;28;45752;-80
2023/03/03 02:33:24;;;;;;;;;53.25;40.75;;;;;;;;5027357;28;45718;-80
2023/03/03 02:35:49;;;;;;;;;65.00;46.00;;;;;;;;5034756;28;45722;-79
2023/03/03 02:38:15;;;;;;;;;50.50;41.50;;;;;;;;5035862;28;45649;-82
2023/03/03 02:40:45;;;;;;;;;62.25;41.75;;;;;;;;5046498;28;46992;-82
2023/03/03 02:43:10;;;;;;;;;62.50;45.75;;;;;;;;5035416;28;45616;-80
2023/03/03 02:45:40;;;;;;;;;53.75;40.25;;;;;;;;5029803;28;45641;-80
2023/03/03 02:48:06;;;;;;;;;57.00;42.75;;;;;;;;5027511;28;45776;-80
2023/03/03 02:50:31;;;;;;;;;57.25;45.00;;;;;;;;5032756;28;45616;-80
2023/03/03 02:52:56;;;;;;;;;55.75;44.50;;;;;;;;5039056;28;45333;-81
2023/03/03 02:55:22;;;;;;;;;57.50;42.75;;;;;;;;5034111;28;45445;-80
2023/03/03 02:57:47;;;;;;;;;60.25;46.25;;;;;;;;5034927;28;46056;-79
2023/03/03 03:00:12;;;;;;;;;57.75;44.75;;;;;;;;5044340;28;45555;-78
2023/03/03 03:02:39;;;;;;;;;60.75;45.00;;;;;;;;5048070;28;45759;-80
2023/03/03 03:05:04;;;;;;;;;57.25;45.00;;;;;;;;5031103;28;45629;-81
2023/03/03 03:07:30;;;;;;;;;60.00;45.75;;;;;;;;5044881;28;45641;-80
2023/03/03 03:09:55;;;;;;;;;45.25;39.00;;;;;;;;5043031;28;46009;-80
2023/03/03 03:12:20;;;;;;;;;63.00;45.75;;;;;;;;5040247;28;45443;-80
2023/03/03 03:14:46;;;;;;;;;57.50;46.00;;;;;;;;5034661;28;45678;-79
2023/03/03 03:17:11;;;;;;;;;57.75;46.25;;;;;;;;5034398;28;45948;-80
2023/03/03 03:19:36;;;;;;;;;63.75;47.75;;;;;;;;5033351;28;45697;-83
2023/03/03 03:22:02;;;;;;;;;58.00;46.00;;;;;;;;5033150;28;45413;-78
2023/03/03 03:24:27;;;;;;;;;58.75;47.00;;;;;;;;5031582;28;47444;-79
2023/03/03 03:26:53;;;;;;;;;57.50;43.75;;;;;;;;5018405;28;46751;-80
2023/03/03 03:29:18;;;;;;;;;60.50;44.50;;;;;;;;5043471;28;46286;-80
2023/03/03 03:31:43;;;;;;;;;54.50;44.25;;;;;;;;5032405;28;45730;-80
2023/03/03 03:34:08;;;;;;;;;59.75;42.25;;;;;;;;5033905;28;45376;-80
2023/03/03 03:36:34;;;;;;;;;57.50;44.50;;;;;;;;5032909;28;45349;-80
2023/03/03 03:39:01;;;;;;;;;60.25;45.75;;;;;;;;5043946;28;45269;-79
2023/03/03 03:41:27;;;;;;;;;57.75;45.25;;;;;;;;5036188;28;45363;-78
2023/03/03 03:43:52;;;;;;;;;60.00;43.00;;;;;;;;5031846;28;45680;-81
2023/03/03 03:46:17;;;;;;;;;61.75;46.50;;;;;;;;5036278;28;45281;-80
2023/03/03 03:48:42;;;;;;;;;59.25;44.25;;;;;;;;5037352;28;45292;-80
2023/03/03 03:51:09;;;;;;;;;56.00;42.00;;;;;;;;5044614;28;45473;-80
2023/03/03 03:53:34;;;;;;;;;58.00;45.00;;;;;;;;5034380;28;45724;-79
2023/03/03 03:55:59;;;;;;;;;55.75;42.75;;;;;;;;5040575;28;45611;-80
2023/03/03 03:58:25;;;;;;;;;56.50;45.25;;;;;;;;5035503;28;45676;-80
2023/03/03 04:00:50;;;;;;;;;60.25;45.00;;;;;;;;5026505;28;45671;-80
2023/03/03 04:03:15;;;;;;;;;60.75;44.50;;;;;;;;5026214;28;45715;-80
2023/03/03 04:05:41;;;;;;;;;65.25;48.50;;;;;;;;5047343;28;45509;-79
2023/03/03 04:08:06;;;;;;;;;59.00;46.00;;;;;;;;5039834;28;46609;-79
2023/03/03 04:10:32;;;;;;;;;56.50;45.25;;;;;;;;5031082;28;45412;-80
2023/03/03 04:12:57;;;;;;;;;60.50;45.50;;;;;;;;5032288;28;45352;-80
2023/03/03 04:15:22;;;;;;;;;61.50;46.00;;;;;;;;5031662;28;45446;-79
2023/03/03 04:17:48;;;;;;;;;55.00;45.25;;;;;;;;5023455;28;45805;-79
2023/03/03 04:20:14;;;;;;;;;56.00;40.25;;;;;;;;5036162;28;45398;-79
2023/03/03 04:22:40;;;;;;;;;67.00;49.25;;;;;;;;5032369;28;45810;-78
2023/03/03 04:25:06;;;;;;;;;61.00;43.75;;;;;;;;5031081;28;45490;-80
2023/03/03 04:27:32;;;;;;;;;63.00;46.00;;;;;;;;5032744;28;45716;-79
2023/03/03 04:29:57;;;;;;;;;59.00;45.00;;;;;;;;5033811;28;45709;-79
2023/03/03 04:32:22;;;;;;;;;59.50;43.75;;;;;;;;5030907;28;45523;-80
2023/03/03 04:34:47;;;;;;;;;55.50;42.25;;;;;;;;5035133;28;45594;-79
2023/03/03 04:37:13;;;;;;;;;64.75;46.25;;;;;;;;5029046;28;45689;-80
2023/03/03 04:39:38;;;;;;;;;61.50;46.50;;;;;;;;5026107;28;45615;-79
2023/03/03 04:42:03;;;;;;;;;63.00;45.50;;;;;;;;5046217;28;45554;-79
2023/03/03 04:44:29;;;;;;;;;58.75;46.25;;;;;;;;5042735;28;45439;-80
2023/03/03 04:46:54;;;;;;;;;62.00;48.25;;;;;;;;5039055;28;45904;-79
2023/03/03 04:49:19;;;;;;;;;70.50;49.50;;;;;;;;5032576;28;45673;-79
2023/03/03 04:51:44;;;;;;;;;63.50;49.00;;;;;;;;5030649;28;45610;-80
2023/03/03 04:54:10;;;;;;;;;60.25;47.50;;;;;;;;5040680;28;46034;-79
2023/03/03 04:56:35;;;;;;;;;56.50;44.75;;;;;;;;5040302;28;46496;-79
2023/03/03 04:59:00;;;;;;;;;59.50;45.75;;;;;;;;5045397;28;45446;-79
2023/03/03 05:01:26;;;;;;;;;58.50;45.00;;;;;;;;5042249;28;45726;-80
2023/03/03 05:03:51;;;;;;;;;55.00;43.50;;;;;;;;5034941;28;45640;-80
2023/03/03 05:06:17;;;;;;;;;59.75;46.50;;;;;;;;5038476;28;45670;-81
2023/03/03 05:08:43;;;;;;;;;66.00;48.00;;;;;;;;5033554;28;45372;-81
2023/03/03 05:11:08;;;;;;;;;57.25;47.25;;;;;;;;5039086;28;45497;-82
2023/03/03 05:13:33;;;;;;;;;61.00;45.75;;;;;;;;5047048;28;45676;-82
2023/03/03 05:15:58;;;;;;;;;63.25;48.25;;;;;;;;5038131;28;46180;-82
2023/03/03 05:18:24;;;;;;;;;57.75;46.00;;;;;;;;5044192;28;45527;-82
2023/03/03 05:20:50;;;;;;;;;62.00;46.50;;;;;;;;5046596;28;45760;-82
2023/03/03 05:23:16;;;;;;;;;61.75;47.25;;;;;;;;5035916;28;45877;-81
2023/03/03 05:25:44;;;;;;;;;59.00;45.25;;;;;;;;5039788;28;48333;-82
2023/03/03 05:28:10;;;;;;;;;62.50;46.00;;;;;;;;5036581;28;45856;-82
2023/03/03 05:30:36;;;;;;;;;63.25;49.00;;;;;;;;5040120;28;45941;-81
2023/03/03 05:33:01;;;;;;;;;61.00;46.25;;;;;;;;5034192;28;45761;-80
2023/03/03 05:35:26;;;;;;;;;65.75;52.00;;;;;;;;5045414;28;45801;-82
2023/03/03 05:37:52;;;;;;;;;58.25;47.50;;;;;;;;5035098;28;45641;-83
2023/03/03 05:40:18;;;;;;;;;62.50;47.25;;;;;;;;5026160;28;45756;-81
2023/03/03 05:42:44;;;;;;;;;64.00;47.75;;;;;;;;5040621;28;45914;-81
2023/03/03 05:45:09;;;;;;;;;59.50;46.50;;;;;;;;5039916;28;46082;-82
2023/03/03 05:47:34;;;;;;;;;59.75;47.25;;;;;;;;5034304;28;45477;-81
2023/03/03 05:50:00;;;;;;;;;53.50;44.00;;;;;;;;5061186;28;45496;-81
2023/03/03 05:52:25;;;;;;;;;60.00;45.00;;;;;;;;5044083;28;45768;-80
2023/03/03 05:54:50;;;;;;;;;65.00;47.00;;;;;;;;5045766;28;45674;-82
2023/03/03 05:57:16;;;;;;;;;58.50;41.50;;;;;;;;5042962;28;45309;-83
2023/03/03 05:59:44;;;;;;;;;64.00;47.25;;;;;;;;5045896;28;45363;-82
2023/03/03 06:02:09;;;;;;;;;59.00;46.00;;;;;;;;5028361;28;45487;-84
2023/03/03 06:04:34;;;;;;;;;61.75;49.00;;;;;;;;5037329;28;47099;-83
2023/03/03 06:07:00;;;;;;;;;64.75;47.00;;;;;;;;5041949;28;45485;-83
2023/03/03 06:09:25;;;;;;;;;63.00;49.25;;;;;;;;5037334;28;45396;-82
2023/03/03 06:11:52;;;;;;;;;64.00;47.00;;;;;;;;5054242;28;46052;-82
2023/03/03 06:14:19;;;;;;;;;66.00;48.25;;;;;;;;5044906;28;45460;-83
2023/03/03 06:16:44;;;;;;;;;65.25;47.50;;;;;;;;5043658;28;45704;-82
2023/03/03 06:19:10;;;;;;;;;59.00;47.75;;;;;;;;5046558;28;45271;-81
2023/03/03 06:21:35;;;;;;;;;69.75;51.75;;;;;;;;5042269;28;45314;-82
2023/03/03 06:24:00;;;;;;;;;64.00;46.25;;;;;;;;5042254;28;48299;-82
2023/03/03 06:26:25;;;;;;;;;63.00;47.50;;;;;;;;5047006;28;45816;-83
2023/03/03 06:28:52;;;;;;;;;62.25;48.25;;;;;;;;5036757;28;45388;-84
2023/03/03 06:31:18;;;;;;;;;61.00;49.75;;;;;;;;5040169;28;45751;-84
2023/03/03 06:33:43;;;;;;;;;57.00;43.75;;;;;;;;5036986;28;45845;-82
2023/03/03 06:36:09;;;;;;;;;60.00;46.00;;;;;;;;5033365;28;46415;-81
2023/03/03 06:38:35;;;;;;;;;68.00;50.00;;;;;;;;5043641;28;45895;-82
2023/03/03 06:41:03;;;;;;;;;62.00;48.00;;;;;;;;5044039;28;45816;-83
2023/03/03 06:43:28;;;;;;;;;60.50;47.25;;;;;;;;5036176;28;46772;-80
2023/03/03 06:45:53;;;;;;;;;65.25;49.50;;;;;;;;5035317;28;45562;-80
2023/03/03 06:48:19;;;;;;;;;65.75;48.75;;;;;;;;5034702;28;45619;-80
2023/03/03 06:50:44;;;;;;;;;67.00;50.25;;;;;;;;5028843;28;45511;-78
2023/03/03 06:53:11;;;;;;;;;64.50;49.00;;;;;;;;5031676;28;46014;-79
2023/03/03 06:55:37;;;;;;;;;56.00;46.25;;;;;;;;5029122;28;45730;-81
2023/03/03 06:58:07;;;;;;;;;63.25;48.00;;;;;;;;5034474;28;45740;-83
2023/03/03 07:00:34;;;;;;;;;67.50;47.75;;;;;;;;5023026;28;45758;-80
2023/03/03 07:03:04;;;;;;;;;64.50;48.00;;;;;;;;5040678;28;46571;-80
2023/03/03 07:05:29;;;;;;;;;71.00;50.25;;;;;;;;5033368;28;45860;-79
2023/03/03 07:07:55;;;;;;;;;68.50;51.50;;;;;;;;5026553;28;45685;-79
2023/03/03 07:10:25;;;;;;;;;67.50;50.50;;;;;;;;5030239;28;45425;-79
2023/03/03 07:12:50;;;;;;;;;62.75;47.25;;;;;;;;5032338;28;45819;-80
2023/03/03 07:15:19;;;;;;;;;67.25;51.00;;;;;;;;5031823;28;45406;-79
2023/03/03 07:17:47;;;;;;;;;64.50;50.75;;;;;;;;5029800;28;45906;-79
2023/03/03 07:20:22;;;;;;;;;65.75;50.25;;;;;;;;5035188;28;45599;-80
2023/03/03 07:22:47;;;;;;;;;68.25;51.00;;;;;;;;5025188;28;45965;-79
2023/03/03 07:25:34;;;;;;;;;68.75;50.50;;;;;;;;5024427;28;45484;-79
2023/03/03 07:28:19;;;;;;;;;67.50;50.00;;;;;;;;5025397;28;45763;-79
2023/03/03 07:30:45;;;;;;;;;62.25;49.00;;;;;;;;5016015;28;46071;-79
2023/03/03 07:33:19;;;;;;;;;66.75;47.75;;;;;;;;5025599;28;47597;-81
2023/03/03 07:35:45;;;;;;;;;62.50;48.75;;;;;;;;5028957;28;45645;-81
2023/03/03 07:38:23;;;;;;;;;62.00;47.75;;;;;;;;5028154;28;45670;-79
2023/03/03 07:40:50;;;;;;;;;65.25;49.00;;;;;;;;5031136;28;45745;-80
2023/03/03 07:43:34;;;;;;;;;65.25;46.75;;;;;;;;5028499;28;48212;-80
2023/03/03 07:46:09;;;;;;;;;64.75;48.25;;;;;;;;5027167;28;45972;-80
2023/03/03 07:48:35;;;;;;;;;67.00;48.50;;;;;;;;5026368;28;45448;-79
2023/03/03 07:51:03;;;;;;;;;61.75;50.00;;;;;;;;5014862;28;45934;-79
2023/03/03 07:53:33;;;;;;;;;64.50;49.00;;;;;;;;5041262;28;45694;-81
2023/03/03 07:55:59;;;;;;;;;67.25;50.75;;;;;;;;5029398;28;45400;-79
2023/03/03 07:58:39;;;;;;;;;57.25;46.25;;;;;;;;5019298;28;45574;-83
2023/03/03 08:01:22;;;;;;;;;67.25;50.00;;;;;;;;5026105;28;46047;-79
2023/03/03 08:03:49;;;;;;;;;70.75;51.00;;;;;;;;5031232;28;47562;-81
2023/03/03 08:06:33;;;;;;;;;66.25;51.50;;;;;;;;5027948;28;45672;-82
2023/03/03 08:09:11;;;;;;;;;68.75;51.00;;;;;;;;5038044;28;45860;-81
2023/03/03 08:11:46;;;;;;;;;66.75;50.75;;;;;;;;5030927;28;46476;-80
2023/03/03 08:14:14;;;;;;;;;71.00;50.50;;;;;;;;5026916;28;46130;-79
2023/03/03 08:16:39;;;;;;;;;66.25;51.00;;;;;;;;5040357;28;45512;-78
2023/03/03 08:19:05;;;;;;;;;62.75;50.25;;;;;;;;5031198;28;45763;-82
2023/03/03 08:21:31;;;;;;;;;63.50;48.50;;;;;;;;5031199;28;47160;-80
2023/03/03 08:23:56;;;;;;;;;61.00;47.50;;;;;;;;5035810;28;46314;-78
2023/03/03 08:26:22;;;;;;;;;68.50;50.00;;;;;;;;5035026;28;45652;-78
2023/03/03 08:28:48;;;;;;;;;72.00;53.00;;;;;;;;5031274;28;45795;-81
2023/03/03 08:31:13;;;;;;;;;65.25;48.75;;;;;;;;5030480;28;45734;-80
2023/03/03 08:33:39;;;;;;;;;67.50;54.00;;;;;;;;5039315;28;45526;-79
2023/03/03 08:36:05;;;;;;;;;65.75;49.00;;;;;;;;5029709;28;45424;-80
2023/03/03 08:38:30;;;;;;;;;65.00;49.25;;;;;;;;5032191;28;45685;-80
2023/03/03 08:40:55;;;;;;;;;75.25;54.50;;;;;;;;5028073;28;45686;-78
2023/03/03 08:43:21;;;;;;;;;67.00;50.25;;;;;;;;5033488;28;45669;-79
2023/03/03 08:45:57;;;;;;;;;63.25;48.00;;;;;;;;5033852;28;45811;-78
2023/03/03 08:48:22;;;;;;;;;68.00;50.50;;;;;;;;5028885;28;45740;-78
2023/03/03 08:50:48;;;;;;;;;67.75;51.00;;;;;;;;5031957;28;45700;-79
2023/03/03 08:53:13;;;;;;;;;60.50;47.00;;;;;;;;5029770;28;45782;-78
2023/03/03 08:55:39;;;;;;;;;69.75;50.25;;;;;;;;5030859;28;45454;-79
2023/03/03 08:58:05;;;;;;;;;62.75;47.50;;;;;;;;5036429;28;45808;-78
2023/03/03 09:00:30;;;;;;;;;63.25;48.50;;;;;;;;5030810;28;45860;-80
2023/03/03 09:02:55;;;;;;;;;65.75;50.50;;;;;;;;5029821;28;47024;-79
2023/03/03 09:05:21;;;;;;;;;69.25;52.50;;;;;;;;5029002;28;45831;-78
2023/03/03 09:07:47;;;;;;;;;65.75;50.75;;;;;;;;5032860;28;45674;-80
2023/03/03 09:10:14;;;;;;;;;62.75;50.25;;;;;;;;5033681;28;45579;-82
2023/03/03 09:12:41;;;;;;;;;68.00;52.50;;;;;;;;5032717;28;47525;-83
2023/03/03 09:15:13;;;;;;;;;61.75;45.75;;;;;;;;5032102;28;45636;-83
2023/03/03 09:17:48;;;;;;;;;58.25;44.25;;;;;;;;5039984;28;45418;-85
2023/03/03 09:20:16;;;;;;;;;65.50;50.25;;;;;;;;5033099;28;45564;-83
2023/03/03 09:22:43;;;;;;;;;63.50;47.50;;;;;;;;5037307;28;48209;-83
2023/03/03 09:25:41;;;;;;;;;68.75;51.25;;;;;;;;5036538;28;45404;-83
2023/03/03 09:28:18;;;;;;;;;65.75;51.25;;;;;;;;5010039;28;45925;-83
2023/03/03 09:30:47;;;;;;;;;62.50;48.75;;;;;;;;5036127;28;44902;-80
2023/03/03 09:33:21;;;;;;;;;64.50;46.75;;;;;;;;5032345;28;45773;-80
2023/03/03 09:35:48;;;;;;;;;66.00;49.25;;;;;;;;5037385;28;45797;-81
2023/03/03 09:38:18;;;;;;;;;66.50;48.75;;;;;;;;5028555;28;45810;-81
2023/03/03 09:40:43;;;;;;;;;61.00;44.75;;;;;;;;5029200;28;45490;-81
2023/03/03 09:43:12;;;;;;;;;58.75;44.25;;;;;;;;5032299;28;45637;-82
2023/03/03 09:45:51;;;;;;;;;59.75;40.75;;;;;;;;5038584;28;45781;-80
2023/03/03 09:48:16;;;;;;;;;56.25;43.75;;;;;;;;5029136;28;45845;-82
2023/03/03 09:50:44;;;;;;;;;59.75;44.75;;;;;;;;5028264;28;46149;-82
2023/03/03 09:53:25;;;;;;;;;55.50;44.50;;;;;;;;5031494;28;46475;-81
2023/03/03 09:56:09;;;;;;;;;57.00;43.75;;;;;;;;5022907;28;45551;-83
2023/03/03 09:58:44;;;;;;;;;59.25;47.25;;;;;;;;5022290;28;46065;-83
2023/03/03 10:01:32;;;;;;;;;63.75;49.50;;;;;;;;5034594;28;45986;-85
2023/03/03 10:04:12;;;;;;;;;39.33;32.33;;;;;;;;5030219;28;45549;-80
2023/03/03 10:06:40;;;;;;;;;47.33;36.67;;;;;;;;5026711;28;45646;-82
2023/03/03 10:09:38;;;;;;;;;52.00;39.67;;;;;;;;5030997;28;45442;-79
2023/03/03 10:12:06;;;;;;;;;50.00;36.67;;;;;;;;5011498;28;45644;-80
2023/03/03 10:14:31;;;;;;;;;57.00;44.67;;;;;;;;5027817;28;46226;-82
2023/03/03 10:17:19;;;;;;;;;60.33;44.67;;;;;;;;5031678;28;45294;-83
2023/03/03 10:19:51;;;;;;;;;51.00;38.00;;;;;;;;5029415;28;45767;-83
2023/03/03 10:22:27;;;;;;;;;48.00;35.67;;;;;;;;5044550;28;45820;-81
2023/03/03 10:24:55;;;;;;;;;55.67;41.67;;;;;;;;5035966;28;46583;-83
2023/03/03 10:27:39;;;;;;;;;43.33;35.67;;;;;;;;5031736;28;45715;-83
2023/03/03 10:30:17;;;;;;;;;50.67;42.67;;;;;;;;5028405;28;45571;-83
2023/03/03 10:32:44;;;;;;;;;52.00;39.67;;;;;;;;5032435;28;47288;-82
2023/03/03 10:35:27;;;;;;;;;55.33;42.33;;;;;;;;5033741;28;45958;-83
2023/03/03 10:38:05;;;;;;;;;50.33;36.00;;;;;;;;5035578;28;46693;-81
2023/03/03 10:40:33;;;;;;;;;55.33;42.67;;;;;;;;5028577;28;45893;-84
2023/03/03 10:43:07;;;;;;;;;48.00;38.00;;;;;;;;5025543;28;46693;-81
2023/03/03 10:45:39;;;;;;;;;38.00;32.67;;;;;;;;5024152;28;45791;-82
2023/03/03 10:48:09;;;;;;;;;48.67;38.00;;;;;;;;5030961;28;45937;-82
2023/03/03 10:50:53;;;;;;;;;50.00;38.00;;;;;;;;5025598;28;45432;-79
2023/03/03 10:53:33;;;;;;;;;50.67;40.00;;;;;;;;5027935;28;47840;-81
2023/03/03 10:56:18;;;;;;;;;47.00;36.67;;;;;;;;5028189;28;46910;-80
2023/03/03 10:59:02;;;;;;;;;45.67;37.33;;;;;;;;5027524;28;46002;-81
2023/03/03 11:01:27;;;;;;;;;52.67;40.00;;;;;;;;5027715;28;45808;-80
2023/03/03 11:04:15;;;;;;;;;53.00;39.00;;;;;;;;5021049;28;46818;-80
2023/03/03 11:06:59;;;;;;;;;50.00;40.33;;;;;;;;5036168;28;46273;-79
2023/03/03 11:09:53;;;;;;;;;51.00;42.00;;;;;;;;5026462;28;45411;-79
2023/03/03 11:12:29;;;;;;;;;50.67;42.00;;;;;;;;5037220;28;45980;-79
2023/03/03 11:14:55;;;;;;;;;48.33;37.67;;;;;;;;5040798;27;45952;-82
2023/03/03 11:17:23;;;;;;;;;49.67;39.33;;;;;;;;5035290;28;45563;-82
2023/03/03 11:20:12;;;;;;;;;49.00;38.00;;;;;;;;5034127;28;45786;-82
2023/03/03 11:22:41;;;;;;;;;50.67;37.67;;;;;;;;5032558;28;45433;-84
2023/03/03 11:25:18;;;;;;;;;43.67;32.67;;;;;;;;5034927;28;45365;-82
2023/03/03 11:28:04;;;;;;;;;45.67;33.67;;;;;;;;5042134;28;47506;-80
2023/03/03 11:30:42;;;;;;;;;52.33;42.33;;;;;;;;5032113;28;45401;-80
2023/03/03 11:33:11;;;;;;;;;48.00;37.33;;;;;;;;5054559;28;45649;-83
2023/03/03 11:35:55;;;;;;;;;46.25;35.75;;;;;;;;5030985;28;46001;-82
2023/03/03 11:38:31;;;;;;;;;43.67;35.33;;;;;;;;5039170;28;48385;-78
2023/03/03 11:41:00;;;;;;;;;44.67;36.67;;;;;;;;5027012;28;45919;-79
2023/03/03 11:43:36;;;;;;;;;48.67;36.33;;;;;;;;5023638;28;45543;-81
2023/03/03 11:46:07;;;;;;;;;40.33;33.00;;;;;;;;5020696;28;45972;-81
2023/03/03 11:48:51;;;;;;;;;46.33;35.67;;;;;;;;5022922;28;46383;-83
2023/03/03 11:51:43;;;;;;;;;39.00;29.33;;;;;;;;5025573;28;45578;-85
2023/03/03 11:54:09;;;;;;;;;39.33;33.00;;;;;;;;5021828;28;46996;-83
2023/03/03 11:56:35;;;;;;;;;39.00;33.00;;;;;;;;5026046;28;46052;-82
2023/03/03 11:59:19;;;;;;;;;46.33;33.00;;;;;;;;5023947;28;45694;-82
2023/03/03 12:02:18;;;;;;;;;45.33;35.00;;;;;;;;5025784;28;45409;-83
2023/03/03 12:04:47;;;;;;;;;45.67;33.00;;;;;;;;4999630;28;45885;-81
2023/03/03 12:07:12;;;;;;;;;39.00;29.67;;;;;;;;5024565;28;45334;-80
2023/03/03 12:09:56;;;;;;;;;40.33;32.67;;;;;;;;5027595;28;45692;-80
2023/03/03 12:12:23;;;;;;;;;39.67;31.67;;;;;;;;5028088;28;45569;-81
2023/03/03 12:14:48;;;;;;;;;37.00;32.00;;;;;;;;5032248;28;45849;-83
2023/03/03 12:17:34;;;;;;;;;36.67;30.00;;;;;;;;5028348;28;45613;-81
2023/03/03 12:20:02;;;;;;;;;37.00;30.00;;;;;;;;5031956;28;45832;-81
2023/03/03 12:22:28;;;;;;;;;37.67;32.00;;;;;;;;5027191;28;45451;-83
2023/03/03 12:24:53;;;;;;;;;31.00;29.00;;;;;;;;5034215;28;45631;-83
2023/03/03 12:27:27;;;;;;;;;39.75;35.75;;;;;;;;5033388;28;45803;-82
2023/03/03 12:30:15;;;;;;;;;37.67;25.33;;;;;;;;5028380;28;45831;-81
2023/03/03 12:32:59;;;;;;;;;33.33;31.33;;;;;;;;5031685;28;45511;-82
2023/03/03 12:35:29;;;;;;;;;29.00;27.33;;;;;;;;5035602;28;46051;-81
2023/03/03 12:37:58;;;;;;;;;31.67;24.67;;;;;;;;5039957;28;46758;-82
2023/03/03 12:40:23;;;;;;;;;31.33;28.00;;;;;;;;5029083;28;47532;-82
2023/03/03 12:42:51;;;;;;;;;36.33;27.67;;;;;;;;5025771;28;45442;-81
2023/03/03 12:45:25;;;;;;;;;29.67;26.67;;;;;;;;5025915;28;45439;-80
2023/03/03 12:47:55;;;;;;;;;34.33;26.00;;;;;;;;5026442;28;46112;-81
2023/03/03 12:50:24;;;;;;;;;33.33;29.00;;;;;;;;5029542;28;46571;-80
2023/03/03 12:53:00;;;;;;;;;30.67;26.67;;;;;;;;5031644;28;45678;-81
2023/03/03 12:55:28;;;;;;;;;39.33;31.67;;;;;;;;5023971;28;45782;-80
2023/03/03 12:58:02;;;;;;;;;41.67;31.33;;;;;;;;5029402;28;45457;-80
2023/03/03 13:00:34;;;;;;;;;30.33;27.33;;;;;;;;5016939;28;48218;-82
2023/03/03 13:03:05;;;;;;;;;31.67;27.33;;;;;;;;5025947;28;45375;-82
2023/03/03 13:05:40;;;;;;;;;34.33;30.67;;;;;;;;5025837;28;45448;-80
2023/03/03 13:08:08;;;;;;;;;35.67;27.33;;;;;;;;5027463;28;45558;-80
2023/03/03 13:10:33;;;;;;;;;27.00;23.33;;;;;;;;5034227;28;46533;-81
2023/03/03 13:13:08;;;;;;;;;30.00;25.00;;;;;;;;5023772;28;45408;-80
2023/03/03 13:15:36;;;;;;;;;33.00;27.00;;;;;;;;5036243;28;45399;-81
2023/03/03 13:18:11;;;;;;;;;33.67;26.00;;;;;;;;5032741;28;45701;-80
2023/03/03 13:20:48;;;;;;;;;38.67;30.67;;;;;;;;5035445;28;45688;-80
2023/03/03 13:23:32;;;;;;;;;39.00;29.33;;;;;;;;5034643;28;45659;-81
2023/03/03 13:26:10;;;;;;;;;39.33;28.67;;;;;;;;5033858;28;45755;-82
2023/03/03 13:28:39;;;;;;;;;33.33;27.33;;;;;;;;5042573;28;45400;-82
2023/03/03 13:31:11;;;;;;;;;31.33;27.00;;;;;;;;5029938;28;47354;-81
2023/03/03 13:33:36;;;;;;;;;31.33;27.00;;;;;;;;5034475;28;45384;-82
2023/03/03 13:36:23;;;;;;;;;40.00;26.67;;;;;;;;5036061;28;45430;-82
2023/03/03 13:38:52;;;;;;;;;31.33;26.67;;;;;;;;5021137;28;45349;-82
2023/03/03 13:41:27;;;;;;;;;32.67;26.33;;;;;;;;5036415;28;45523;-81
2023/03/03 13:44:02;;;;;;;;;32.00;25.67;;;;;;;;5040384;28;45457;-83
2023/03/03 13:46:42;;;;;;;;;29.67;25.67;;;;;;;;5040275;28;45692;-81
2023/03/03 13:49:10;;;;;;;;;23.67;21.33;;;;;;;;5024688;28;45510;-80
2023/03/03 13:51:35;;;;;;;;;29.00;26.00;;;;;;;;5026469;28;45760;-82
2023/03/03 13:54:01;;;;;;;;;36.00;28.33;;;;;;;;5034364;28;45882;-82
2023/03/03 13:56:41;;;;;;;;;23.33;17.00;;;;;;;;5031607;28;45828;-82
2023/03/03 13:59:33;;;;;;;;;29.33;22.67;;;;;;;;5031361;28;45814;-82
2023/03/03 14:02:17;;;;;;;;;28.67;25.00;;;;;;;;5027192;28;45543;-80
2023/03/03 14:04:47;;;;;;;;;24.67;21.67;;;;;;;;5027371;28;45562;-82
2023/03/03 14:07:33;;;;;;;;;30.67;26.00;;;;;;;;5032969;28;45493;-83
2023/03/03 14:09:58;;;;;;;;;23.67;21.67;;;;;;;;5024408;28;45566;-80
2023/03/03 14:12:24;;;;;;;;;27.00;24.33;;;;;;;;5040761;28;46432;-82
2023/03/03 14:14:59;;;;;;;;;28.33;27.00;;;;;;;;5040785;28;45522;-82
2023/03/03 14:17:27;;;;;;;;;20.67;17.33;;;;;;;;5039928;28;45421;-81
2023/03/03 14:20:01;;;;;;;;;24.67;22.67;;;;;;;;5036294;28;45436;-83
2023/03/03 14:22:34;;;;;;;;;28.00;26.00;;;;;;;;5032661;28;45442;-82
2023/03/03 14:25:02;;;;;;;;;30.00;27.33;;;;;;;;5043194;28;45343;-83
2023/03/03 14:27:39;;;;;;;;;29.67;24.00;;;;;;;;5035859;28;45531;-83
2023/03/03 14:30:23;;;;;;;;;34.33;30.00;;;;;;;;5043061;28;45399;-82
2023/03/03 14:33:02;;;;;;;;;25.67;21.33;;;;;;;;5034267;28;48765;-81